Observation data for Northfield on 07/11/2018      Previous  Date       Current Mesonet Observations  Soil Data  Daily Summary Page  Observations in Plain Language
KNOR 110500Z 15006KT 24/19 A3008 RMK A01 T02430189  RH  074%=      5-min Rain = 0
KNOR 110505Z 14005KT 24/19 A3008 RMK A01 T02430190  RH  074%=      5-min Rain = 0
KNOR 110510Z 10005KT 24/19 A3008 RMK A01 T02410190  RH  075%=      5-min Rain = 0
KNOR 110515Z 10006KT 24/19 A3008 RMK A01 T02390190  RH  076%=      5-min Rain = 0
KNOR 110520Z 10005KT 24/19 A3009 RMK A01 T02400190  RH  076%=      5-min Rain = 0
KNOR 110525Z 11006KT 24/19 A3009 RMK A01 T02430190  RH  075%=      5-min Rain = 0
KNOR 110530Z 10006KT 24/19 A3009 RMK A01 T02430190  RH  074%=      5-min Rain = 0
KNOR 110535Z 09006KT 24/19 A3009 RMK A01 T02430191  RH  075%=      5-min Rain = 0
KNOR 110540Z 09006KT 24/19 A3009 RMK A01 T02410192  RH  076%=      5-min Rain = 0
KNOR 110545Z 10006KT 24/19 A3009 RMK A01 T02400193  RH  077%=      5-min Rain = 0
KNOR 110550Z 10006KT 24/19 A3009 RMK A01 T02400193  RH  077%=      5-min Rain = 0
KNOR 110555Z 10005KT 24/19 A3009 RMK A01 T02390193  RH  078%=      5-min Rain = 0
KNOR 110600Z 10006KT 24/19 A3009 RMK A01 T02390193  RH  078%=      5-min Rain = 0
KNOR 110605Z 10006KT 24/19 A3008 RMK A01 T02370193  RH  078%=      5-min Rain = 0
KNOR 110610Z 10007KT 24/19 A3008 RMK A01 T02370193  RH  079%=      5-min Rain = 0
KNOR 110615Z 10007KT 24/19 A3008 RMK A01 T02360193  RH  079%=      5-min Rain = 0
KNOR 110620Z 10006KT 24/19 A3009 RMK A01 T02370194  RH  079%=      5-min Rain = 0
KNOR 110625Z 11007KT 24/19 A3009 RMK A01 T02370194  RH  079%=      5-min Rain = 0
KNOR 110630Z 11007KT 24/19 A3008 RMK A01 T02350194  RH  079%=      5-min Rain = 0
KNOR 110635Z 12007KT 24/19 A3008 RMK A01 T02350193  RH  080%=      5-min Rain = 0
KNOR 110640Z 12007KT 24/19 A3008 RMK A01 T02350193  RH  079%=      5-min Rain = 0
KNOR 110645Z 13007KT 24/19 A3008 RMK A01 T02360193  RH  079%=      5-min Rain = 0
KNOR 110650Z 13006KT 24/19 A3008 RMK A01 T02360192  RH  078%=      5-min Rain = 0
KNOR 110655Z 13006KT 24/19 A3008 RMK A01 T02360192  RH  078%=      5-min Rain = 0
KNOR 110700Z 14006KT 24/19 A3008 RMK A01 T02360191  RH  078%=      5-min Rain = 0
KNOR 110705Z 15007KT 24/19 A3008 RMK A01 T02360191  RH  078%=      5-min Rain = 0
KNOR 110710Z 15008KT 24/19 A3008 RMK A01 T02370192  RH  078%=      5-min Rain = 0
KNOR 110715Z 16007KT 24/19 A3008 RMK A01 T02370192  RH  078%=      5-min Rain = 0
KNOR 110720Z 17008KT 24/19 A3008 RMK A01 T02380190  RH  077%=      5-min Rain = 0
KNOR 110725Z 16008KT 24/19 A3008 RMK A01 T02400190  RH  076%=      5-min Rain = 0
KNOR 110730Z 16008KT 24/19 A3008 RMK A01 T02390190  RH  076%=      5-min Rain = 0
KNOR 110735Z 17007KT 24/19 A3008 RMK A01 T02370190  RH  077%=      5-min Rain = 0
KNOR 110740Z 17007KT 24/19 A3008 RMK A01 T02370190  RH  077%=      5-min Rain = 0
KNOR 110745Z 17006KT 24/19 A3008 RMK A01 T02370190  RH  077%=      5-min Rain = 0
KNOR 110750Z 17005KT 24/19 A3008 RMK A01 T02350190  RH  078%=      5-min Rain = 0
KNOR 110755Z 18005KT 23/19 A3008 RMK A01 T02340190  RH  078%=      5-min Rain = 0
KNOR 110800Z 19005KT 23/19 A3008 RMK A01 T02320190  RH  079%=      5-min Rain = 0
KNOR 110805Z 21004KT 23/19 A3008 RMK A01 T02290189  RH  080%=      5-min Rain = 0
KNOR 110810Z 23003KT 23/19 A3008 RMK A01 T02290189  RH  080%=      5-min Rain = 0
KNOR 110815Z 26002KT 23/19 A3008 RMK A01 T02280189  RH  081%=      5-min Rain = 0
KNOR 110820Z 27003KT 23/19 A3008 RMK A01 T02280189  RH  081%=      5-min Rain = 0
KNOR 110825Z 25004KT 23/19 A3008 RMK A01 T02260189  RH  082%=      5-min Rain = 0
KNOR 110830Z 22004KT 23/19 A3008 RMK A01 T02270189  RH  081%=      5-min Rain = 0
KNOR 110835Z 21005KT 23/19 A3008 RMK A01 T02280189  RH  080%=      5-min Rain = 0
KNOR 110840Z 21005KT 23/19 A3008 RMK A01 T02320188  RH  079%=      5-min Rain = 0
KNOR 110845Z 21005KT 23/19 A3008 RMK A01 T02310189  RH  079%=      5-min Rain = 0
KNOR 110850Z 21005KT 23/19 A3008 RMK A01 T02280189  RH  081%=      5-min Rain = 0
KNOR 110855Z 21005KT 23/19 A3008 RMK A01 T02270189  RH  081%=      5-min Rain = 0
KNOR 110900Z 21005KT 23/19 A3008 RMK A01 T02260188  RH  081%=      5-min Rain = 0
KNOR 110905Z 21005KT 22/19 A3008 RMK A01 T02240188  RH  082%=      5-min Rain = 0
KNOR 110910Z 20005KT 22/19 A3007 RMK A01 T02230188  RH  083%=      5-min Rain = 0
KNOR 110915Z 20005KT 22/19 A3007 RMK A01 T02220187  RH  082%=      5-min Rain = 0
KNOR 110920Z 20005KT 22/19 A3007 RMK A01 T02230186  RH  082%=      5-min Rain = 0
KNOR 110925Z 21005KT 22/19 A3007 RMK A01 T02220186  RH  082%=      5-min Rain = 0
KNOR 110930Z 22004KT 22/19 A3007 RMK A01 T02210186  RH  083%=      5-min Rain = 0
KNOR 110935Z 22005KT 22/19 A3007 RMK A01 T02200186  RH  083%=      5-min Rain = 0
KNOR 110940Z 22005KT 22/19 A3007 RMK A01 T02190185  RH  083%=      5-min Rain = 0
KNOR 110945Z 23005KT 22/19 A3007 RMK A01 T02190185  RH  083%=      5-min Rain = 0
KNOR 110950Z 23005KT 22/19 A3007 RMK A01 T02180185  RH  084%=      5-min Rain = 0
KNOR 110955Z 22005KT 22/18 A3006 RMK A01 T02170184  RH  084%=      5-min Rain = 0
KNOR 111000Z 22005KT 22/18 A3006 RMK A01 T02170184  RH  084%=      5-min Rain = 0
KNOR 111005Z 23004KT 22/18 A3006 RMK A01 T02160183  RH  084%=      5-min Rain = 0
KNOR 111010Z 23004KT 21/18 A3006 RMK A01 T02140183  RH  084%=      5-min Rain = 0
KNOR 111015Z 22004KT 21/18 A3006 RMK A01 T02140183  RH  084%=      5-min Rain = 0
KNOR 111020Z 23004KT 21/18 A3006 RMK A01 T02140182  RH  084%=      5-min Rain = 0
KNOR 111025Z 22004KT 22/18 A3006 RMK A01 T02150182  RH  084%=      5-min Rain = 0
KNOR 111030Z 22004KT 21/18 A3006 RMK A01 T02140182  RH  084%=      5-min Rain = 0
KNOR 111035Z 22003KT 22/18 A3006 RMK A01 T02150182  RH  084%=      5-min Rain = 0
KNOR 111040Z 22003KT 22/18 A3006 RMK A01 T02160182  RH  083%=      5-min Rain = 0
KNOR 111045Z 21003KT 22/18 A3006 RMK A01 T02160182  RH  083%=      5-min Rain = 0
KNOR 111050Z 21003KT 22/18 A3006 RMK A01 T02170182  RH  082%=      5-min Rain = 0
KNOR 111055Z 22003KT 22/18 A3006 RMK A01 T02180182  RH  082%=      5-min Rain = 0
KNOR 111100Z 23003KT 22/18 A3006 RMK A01 T02190181  RH  081%=      5-min Rain = 0
KNOR 111105Z 24003KT 22/18 A3006 RMK A01 T02210181  RH  080%=      5-min Rain = 0
KNOR 111110Z 24003KT 22/18 A3006 RMK A01 T02200181  RH  081%=      5-min Rain = 0
KNOR 111115Z 24003KT 22/18 A3006 RMK A01 T02190181  RH  081%=      5-min Rain = 0
KNOR 111120Z 25003KT 22/18 A3006 RMK A01 T02190181  RH  081%=      5-min Rain = 0
KNOR 111125Z 25003KT 22/18 A3007 RMK A01 T02190181  RH  081%=      5-min Rain = 0
KNOR 111130Z 25003KT 22/18 A3007 RMK A01 T02190180  RH  081%=      5-min Rain = 0
KNOR 111135Z 25002KT 22/18 A3007 RMK A01 T02200180  RH  080%=      5-min Rain = 0
KNOR 111140Z 24002KT 22/18 A3007 RMK A01 T02210180  RH  080%=      5-min Rain = 0
KNOR 111145Z 22002KT 22/18 A3008 RMK A01 T02210179  RH  079%=      5-min Rain = 0
KNOR 111150Z 20003KT 22/18 A3008 RMK A01 T02200180  RH  080%=      5-min Rain = 0
KNOR 111155Z 20003KT 22/18 A3008 RMK A01 T02180182  RH  082%=      5-min Rain = 0
KNOR 111200Z 18003KT 22/18 A3008 RMK A01 T02160182  RH  083%=      5-min Rain = 0
KNOR 111205Z 18003KT 22/18 A3008 RMK A01 T02170182  RH  083%=      5-min Rain = 0
KNOR 111210Z 19004KT 22/18 A3008 RMK A01 T02180183  RH  083%=      5-min Rain = 0
KNOR 111215Z 19005KT 22/18 A3008 RMK A01 T02180183  RH  083%=      5-min Rain = 0
KNOR 111220Z 19006KT 22/18 A3008 RMK A01 T02180184  RH  083%=      5-min Rain = 0
KNOR 111225Z 19006KT 22/19 A3008 RMK A01 T02190185  RH  083%=      5-min Rain = 0
KNOR 111230Z 20006KT 22/19 A3008 RMK A01 T02210186  RH  083%=      5-min Rain = 0
KNOR 111235Z 20005KT 23/19 A3008 RMK A01 T02250188  RH  082%=      5-min Rain = 0
KNOR 111240Z 20005KT 23/19 A3008 RMK A01 T02310190  RH  080%=      5-min Rain = 0
KNOR 111245Z 20004KT 24/19 A3009 RMK A01 T02360191  RH  078%=      5-min Rain = 0
KNOR 111250Z 20003KT 24/19 A3009 RMK A01 T02390190  RH  076%=      5-min Rain = 0
KNOR 111255Z 20003KT 24/19 A3009 RMK A01 T02430191  RH  075%=      5-min Rain = 0
KNOR 111300Z 20003KT 25/19 A3009 RMK A01 T02470191  RH  073%=      5-min Rain = 0
KNOR 111305Z 22003KT 25/19 A3009 RMK A01 T02500192  RH  072%=      5-min Rain = 0
KNOR 111310Z 21003KT 25/19 A3009 RMK A01 T02530190  RH  070%=      5-min Rain = 0
KNOR 111315Z 21002KT 26/19 A3009 RMK A01 T02560191  RH  069%=      5-min Rain = 0
KNOR 111320Z 20002KT 26/19 A3009 RMK A01 T02600190  RH  067%=      5-min Rain = 0
KNOR 111325Z 20002KT 26/19 A3009 RMK A01 T02620189  RH  066%=      5-min Rain = 0
KNOR 111330Z 20002KT 27/19 A301 RMK A01 T02650188  RH  064%=      5-min Rain = 0
KNOR 111335Z 22003KT 27/18 A301 RMK A01 T02660184  RH  062%=      5-min Rain = 0
KNOR 111340Z 21002KT 27/18 A301 RMK A01 T02700184  RH  061%=      5-min Rain = 0
KNOR 111345Z 22002KT 27/18 A301 RMK A01 T02730182  RH  059%=      5-min Rain = 0
KNOR 111350Z 23004KT 28/18 A301 RMK A01 T02770176  RH  056%=      5-min Rain = 0
KNOR 111355Z 22003KT 28/18 A301 RMK A01 T02790180  RH  056%=      5-min Rain = 0
KNOR 111400Z 22005KT 28/18 A301 RMK A01 T02790177  RH  055%=      5-min Rain = 0
KNOR 111405Z 21004KT 28/18 A301 RMK A01 T02820177  RH  054%=      5-min Rain = 0
KNOR 111410Z 22004KT 28/18 A301 RMK A01 T02830176  RH  054%=      5-min Rain = 0
KNOR 111415Z 21007KT 29/17 A3011 RMK A01 T02850171  RH  052%=      5-min Rain = 0
KNOR 111420Z 21006KT 29/17 A3011 RMK A01 T02880174  RH  051%=      5-min Rain = 0
KNOR 111425Z 22005KT 29/18 A3011 RMK A01 T02910175  RH  051%=      5-min Rain = 0
KNOR 111430Z 21006KT 29/17 A3011 RMK A01 T02930171  RH  049%=      5-min Rain = 0
KNOR 111435Z 23005KT 29/17 A3011 RMK A01 T02940169  RH  048%=      5-min Rain = 0
KNOR 111440Z 24005KT 30/17 A3011 RMK A01 T02970170  RH  048%=      5-min Rain = 0
KNOR 111445Z 23006KT 30/17 A3011 RMK A01 T02950165  RH  046%=      5-min Rain = 0
KNOR 111450Z 24007KT 30/17 A3011 RMK A01 T03000165  RH  045%=      5-min Rain = 0
KNOR 111455Z 24006KT 30/17 A3011 RMK A01 T03030167  RH  045%=      5-min Rain = 0
KNOR 111500Z 24008G13KT 31/16 A301 RMK A01 T03070164  RH  043%=      5-min Rain = 0
KNOR 111505Z 22007KT 31/16 A301 RMK A01 T03070163  RH  043%=      5-min Rain = 0
KNOR 111510Z 24008KT 31/17 A301 RMK A01 T03130166  RH  042%=      5-min Rain = 0
KNOR 111515Z 25008KT 31/16 A301 RMK A01 T03120160  RH  041%=      5-min Rain = 0
KNOR 111520Z 24008KT 32/16 A301 RMK A01 T03150162  RH  041%=      5-min Rain = 0
KNOR 111525Z 22010KT 32/16 A3009 RMK A01 T03160159  RH  040%=      5-min Rain = 0
KNOR 111530Z 24008G14KT 32/16 A3009 RMK A01 T03180162  RH  040%=      5-min Rain = 0
KNOR 111535Z 22009G14KT 32/16 A3009 RMK A01 T03200163  RH  040%=      5-min Rain = 0
KNOR 111540Z 23007KT 32/17 A3009 RMK A01 T03220165  RH  040%=      5-min Rain = 0
KNOR 111545Z 25010G15KT 32/16 A3009 RMK A01 T03190159  RH  039%=      5-min Rain = 0
KNOR 111550Z 22008KT 32/16 A3009 RMK A01 T03190162  RH  040%=      5-min Rain = 0
KNOR 111555Z 22008KT 32/16 A3009 RMK A01 T03170160  RH  040%=      5-min Rain = 0
KNOR 111600Z 23007KT 32/16 A3009 RMK A01 T03210157  RH  038%=      5-min Rain = 0
KNOR 111605Z 20009G14KT 33/16 A3009 RMK A01 T03260160  RH  038%=      5-min Rain = 0
KNOR 111610Z 21005KT 33/16 A3009 RMK A01 T03260158  RH  037%=      5-min Rain = 0
KNOR 111615Z 19006G16KT 33/16 A3009 RMK A01 T03310156  RH  036%=      5-min Rain = 0
KNOR 111620Z 24008G14KT 33/15 A3009 RMK A01 T03290153  RH  036%=      5-min Rain = 0
KNOR 111625Z 20009G14KT 33/15 A3009 RMK A01 T03300149  RH  034%=      5-min Rain = 0
KNOR 111630Z 18009G17KT 33/14 A3009 RMK A01 T03310144  RH  033%=      5-min Rain = 0
KNOR 111635Z 17007KT 33/14 A3009 RMK A01 T03310141  RH  032%=      5-min Rain = 0
KNOR 111640Z 23007KT 33/15 A3008 RMK A01 T03330146  RH  033%=      5-min Rain = 0
KNOR 111645Z 19006KT 33/15 A3008 RMK A01 T03330148  RH  034%=      5-min Rain = 0
KNOR 111650Z 19011KT 33/15 A3008 RMK A01 T03340146  RH  033%=      5-min Rain = 0
KNOR 111655Z 20006KT 34/15 A3008 RMK A01 T03350145  RH  033%=      5-min Rain = 0
KNOR 111700Z 18008G13KT 34/14 A3008 RMK A01 T03360144  RH  032%=      5-min Rain = 0
KNOR 111705Z 19008G15KT 34/14 A3008 RMK A01 T03380143  RH  032%=      5-min Rain = 0
KNOR 111710Z 17010G16KT 34/14 A3008 RMK A01 T03380142  RH  031%=      5-min Rain = 0
KNOR 111715Z 19007KT 34/14 A3007 RMK A01 T03380141  RH  031%=      5-min Rain = 0
KNOR 111720Z 19011G16KT 34/14 A3007 RMK A01 T03410141  RH  031%=      5-min Rain = 0
KNOR 111725Z 17009G14KT 34/14 A3007 RMK A01 T03390140  RH  031%=      5-min Rain = 0
KNOR 111730Z 15008G14KT 34/14 A3007 RMK A01 T03380140  RH  031%=      5-min Rain = 0
KNOR 111735Z 20010G15KT 34/14 A3007 RMK A01 T03410143  RH  031%=      5-min Rain = 0
KNOR 111740Z 21010G17KT 34/14 A3007 RMK A01 T03410143  RH  031%=      5-min Rain = 0
KNOR 111745Z 19012KT 34/14 A3007 RMK A01 T03420141  RH  030%=      5-min Rain = 0
KNOR 111750Z 18009G14KT 35/14 A3007 RMK A01 T03460139  RH  030%=      5-min Rain = 0
KNOR 111755Z 16012G17KT 35/14 A3006 RMK A01 T03470141  RH  030%=      5-min Rain = 0
KNOR 111800Z 18010G15KT 35/15 A3006 RMK A01 T03460145  RH  031%=      5-min Rain = 0
KNOR 111805Z 21011KT 35/14 A3006 RMK A01 T03480144  RH  030%=      5-min Rain = 0
KNOR 111810Z 17010G15KT 35/15 A3006 RMK A01 T03480146  RH  030%=      5-min Rain = 0
KNOR 111815Z 19012G17KT 35/15 A3006 RMK A01 T03470147  RH  031%=      5-min Rain = 0
KNOR 111820Z 17008G14KT 35/15 A3006 RMK A01 T03470147  RH  031%=      5-min Rain = 0
KNOR 111825Z 17012G20KT 35/15 A3006 RMK A01 T03500147  RH  030%=      5-min Rain = 0
KNOR 111830Z 17009G17KT 35/15 A3006 RMK A01 T03480146  RH  030%=      5-min Rain = 0
KNOR 111835Z 18011G16KT 34/14 A3006 RMK A01 T03420142  RH  031%=      5-min Rain = 0
KNOR 111840Z 17010KT 34/14 A3006 RMK A01 T03380139  RH  031%=      5-min Rain = 0
KNOR 111845Z 18011KT 35/14 A3005 RMK A01 T03470142  RH  030%=      5-min Rain = 0
KNOR 111850Z 19013G20KT 35/14 A3005 RMK A01 T03490137  RH  029%=      5-min Rain = 0
KNOR 111855Z 17008G15KT 34/14 A3005 RMK A01 T03420138  RH  030%=      5-min Rain = 0
KNOR 111900Z 17015KT 35/14 A3004 RMK A01 T03480140  RH  029%=      5-min Rain = 0
KNOR 111905Z 17010G17KT 34/14 A3004 RMK A01 T03390141  RH  031%=      5-min Rain = 0
KNOR 111910Z 17010KT 34/14 A3004 RMK A01 T03390140  RH  031%=      5-min Rain = 0
KNOR 111915Z 17010G16KT 34/14 A3004 RMK A01 T03390142  RH  031%=      5-min Rain = 0
KNOR 111920Z 17014G20KT 34/14 A3004 RMK A01 T03380140  RH  031%=      5-min Rain = 0
KNOR 111925Z 18010G19KT 35/15 A3004 RMK A01 T03530146  RH  030%=      5-min Rain = 0
KNOR 111930Z 18012G19KT 35/15 A3004 RMK A01 T03540145  RH  029%=      5-min Rain = 0
KNOR 111935Z 18010G17KT 35/14 A3003 RMK A01 T03530142  RH  029%=      5-min Rain = 0
KNOR 111940Z 17006KT 36/14 A3003 RMK A01 T03580144  RH  029%=      5-min Rain = 0
KNOR 111945Z 18011G18KT 36/14 A3003 RMK A01 T03560140  RH  028%=      5-min Rain = 0
KNOR 111950Z 17012G19KT 34/13 A3003 RMK A01 T03430132  RH  029%=      5-min Rain = 0
KNOR 111955Z 18010G16KT 34/14 A3002 RMK A01 T03430135  RH  029%=      5-min Rain = 0
KNOR 112000Z 16010G17KT 35/14 A3002 RMK A01 T03510137  RH  028%=      5-min Rain = 0
KNOR 112005Z 17011G20KT 34/14 A3002 RMK A01 T03440136  RH  029%=      5-min Rain = 0
KNOR 112010Z 17014KT 36/14 A3002 RMK A01 T03570137  RH  027%=      5-min Rain = 0
KNOR 112015Z 17013G20KT 36/14 A3002 RMK A01 T03550135  RH  027%=      5-min Rain = 0
KNOR 112020Z 18014KT 34/13 A3001 RMK A01 T03400127  RH  028%=      5-min Rain = 0
KNOR 112025Z 18011G16KT 34/13 A3001 RMK A01 T03400131  RH  029%=      5-min Rain = 0
KNOR 112030Z 19013KT 34/13 A3001 RMK A01 T03410131  RH  029%=      5-min Rain = 0
KNOR 112035Z 18012G20KT 34/13 A3001 RMK A01 T03420132  RH  029%=      5-min Rain = 0
KNOR 112040Z 17013G21KT 35/14 A3001 RMK A01 T03520137  RH  028%=      5-min Rain = 0
KNOR 112045Z 19013G19KT 36/14 A3001 RMK A01 T03610141  RH  027%=      5-min Rain = 0
KNOR 112050Z 18013G18KT 36/14 A3001 RMK A01 T03610137  RH  027%=      5-min Rain = 0
KNOR 112055Z 19013G18KT 36/14 A30 RMK A01 T03620136  RH  026%=      5-min Rain = 0
KNOR 112100Z 17012G18KT 36/14 A30 RMK A01 T03580140  RH  028%=      5-min Rain = 0
KNOR 112105Z 16013G21KT 36/14 A30 RMK A01 T03610142  RH  028%=      5-min Rain = 0
KNOR 112110Z 18013G21KT 36/14 A30 RMK A01 T03590137  RH  027%=      5-min Rain = 0
KNOR 112115Z 18011G19KT 36/14 A2999 RMK A01 T03600138  RH  027%=      5-min Rain = 0
KNOR 112120Z 17011G17KT 35/13 A2999 RMK A01 T03470133  RH  028%=      5-min Rain = 0
KNOR 112125Z 17011KT 35/13 A2999 RMK A01 T03480134  RH  028%=      5-min Rain = 0
KNOR 112130Z 17008KT 34/13 A2998 RMK A01 T03420131  RH  029%=      5-min Rain = 0
KNOR 112135Z 14007G14KT 34/14 A2998 RMK A01 T03430137  RH  030%=      5-min Rain = 0
KNOR 112140Z 15009G15KT 34/14 A2998 RMK A01 T03440136  RH  029%=      5-min Rain = 0
KNOR 112145Z 16012G17KT 35/13 A2998 RMK A01 T03470130  RH  028%=      5-min Rain = 0
KNOR 112150Z 17010G15KT 34/13 A2998 RMK A01 T03430131  RH  028%=      5-min Rain = 0
KNOR 112155Z 16008KT 34/13 A2997 RMK A01 T03440130  RH  028%=      5-min Rain = 0
KNOR 112200Z 16011KT 35/13 A2997 RMK A01 T03450131  RH  028%=      5-min Rain = 0
KNOR 112205Z 16010KT 34/13 A2997 RMK A01 T03430131  RH  028%=      5-min Rain = 0
KNOR 112210Z 17010G18KT 34/13 A2997 RMK A01 T03420132  RH  029%=      5-min Rain = 0
KNOR 112215Z 16011KT 35/13 A2997 RMK A01 T03470132  RH  028%=      5-min Rain = 0
KNOR 112220Z 14010KT 35/14 A2996 RMK A01 T03530135  RH  027%=      5-min Rain = 0
KNOR 112225Z 15009G14KT 36/14 A2996 RMK A01 T03580137  RH  027%=      5-min Rain = 0
KNOR 112230Z 17013G19KT 36/14 A2996 RMK A01 T03630138  RH  027%=      5-min Rain = 0
KNOR 112235Z 16013G18KT 36/14 A2996 RMK A01 T03570135  RH  027%=      5-min Rain = 0
KNOR 112240Z 16011G16KT 35/13 A2996 RMK A01 T03510132  RH  027%=      5-min Rain = 0
KNOR 112245Z 16012G17KT 35/13 A2996 RMK A01 T03510134  RH  028%=      5-min Rain = 0
KNOR 112250Z 16011KT 35/13 A2996 RMK A01 T03500133  RH  028%=      5-min Rain = 0
KNOR 112255Z 17011G16KT 34/13 A2996 RMK A01 T03440133  RH  029%=      5-min Rain = 0
KNOR 112300Z 17011G18KT 34/14 A2996 RMK A01 T03440135  RH  029%=      5-min Rain = 0
KNOR 112305Z 17013KT 34/13 A2996 RMK A01 T03430132  RH  029%=      5-min Rain = 0
KNOR 112310Z 18012G17KT 34/13 A2996 RMK A01 T03430133  RH  029%=      5-min Rain = 0
KNOR 112315Z 18011KT 35/14 A2996 RMK A01 T03480137  RH  029%=      5-min Rain = 0
KNOR 112320Z 18009G15KT 34/14 A2996 RMK A01 T03420135  RH  029%=      5-min Rain = 0
KNOR 112325Z 17011KT 34/13 A2996 RMK A01 T03410132  RH  029%=      5-min Rain = 0
KNOR 112330Z 17008KT 34/13 A2996 RMK A01 T03420133  RH  029%=      5-min Rain = 0
KNOR 112335Z 17009KT 35/14 A2996 RMK A01 T03460137  RH  029%=      5-min Rain = 0
KNOR 112340Z 17008KT 35/13 A2995 RMK A01 T03460132  RH  028%=      5-min Rain = 0
KNOR 112345Z 16007KT 35/14 A2995 RMK A01 T03490136  RH  028%=      5-min Rain = 0
KNOR 112350Z 19007KT 34/14 A2996 RMK A01 T03440136  RH  029%=      5-min Rain = 0
KNOR 112355Z 17007KT 34/14 A2996 RMK A01 T03420137  RH  030%=      5-min Rain = 0
KNOR 120000Z 15008KT 34/14 A2996 RMK A01 T03420137  RH  030%=      5-min Rain = 0
KNOR 120005Z 15010KT 34/14 A2996 RMK A01 T03400137  RH  030%=      5-min Rain = 0
KNOR 120010Z 15008KT 34/14 A2996 RMK A01 T03400135  RH  030%=      5-min Rain = 0
KNOR 120015Z 15006KT 34/14 A2996 RMK A01 T03420138  RH  030%=      5-min Rain = 0
KNOR 120020Z 17011KT 35/14 A2995 RMK A01 T03470135  RH  028%=      5-min Rain = 0
KNOR 120025Z 16012KT 34/13 A2995 RMK A01 T03420132  RH  029%=      5-min Rain = 0
KNOR 120030Z 15011G16KT 34/13 A2996 RMK A01 T03420133  RH  029%=      5-min Rain = 0
KNOR 120035Z 16011KT 34/14 A2996 RMK A01 T03410136  RH  030%=      5-min Rain = 0
KNOR 120040Z 17012KT 34/13 A2996 RMK A01 T03430133  RH  029%=      5-min Rain = 0
KNOR 120045Z 16009KT 34/14 A2996 RMK A01 T03440137  RH  029%=      5-min Rain = 0
KNOR 120050Z 16011KT 34/13 A2996 RMK A01 T03440134  RH  029%=      5-min Rain = 0
KNOR 120055Z 16009KT 34/14 A2996 RMK A01 T03410136  RH  030%=      5-min Rain = 0
KNOR 120100Z 16009KT 34/14 A2997 RMK A01 T03380135  RH  030%=      5-min Rain = 0
KNOR 120105Z 15008KT 34/14 A2997 RMK A01 T03360136  RH  031%=      5-min Rain = 0
KNOR 120110Z 15007KT 33/14 A2997 RMK A01 T03320136  RH  031%=      5-min Rain = 0
KNOR 120115Z 15007KT 33/14 A2997 RMK A01 T03290137  RH  032%=      5-min Rain = 0
KNOR 120120Z 14007KT 33/14 A2997 RMK A01 T03280135  RH  032%=      5-min Rain = 0
KNOR 120125Z 14007KT 33/13 A2997 RMK A01 T03270134  RH  032%=      5-min Rain = 0
KNOR 120130Z 14007KT 33/14 A2997 RMK A01 T03250135  RH  032%=      5-min Rain = 0
KNOR 120135Z 14006KT 32/14 A2997 RMK A01 T03220135  RH  033%=      5-min Rain = 0
KNOR 120140Z 14006KT 32/14 A2997 RMK A01 T03190136  RH  034%=      5-min Rain = 0
KNOR 120145Z 14007KT 32/14 A2997 RMK A01 T03170136  RH  034%=      5-min Rain = 0
KNOR 120150Z 14007KT 32/14 A2997 RMK A01 T03160135  RH  034%=      5-min Rain = 0
KNOR 120155Z 14006KT 32/14 A2998 RMK A01 T03150135  RH  034%=      5-min Rain = 0
KNOR 120200Z 14007KT 31/13 A2998 RMK A01 T03140134  RH  034%=      5-min Rain = 0
KNOR 120205Z 13007KT 31/14 A2998 RMK A01 T03130135  RH  034%=      5-min Rain = 0
KNOR 120210Z 13007KT 31/14 A2998 RMK A01 T03110135  RH  035%=      5-min Rain = 0
KNOR 120215Z 14007KT 31/14 A2998 RMK A01 T03100135  RH  035%=      5-min Rain = 0
KNOR 120220Z 14007KT 31/14 A2998 RMK A01 T03090136  RH  036%=      5-min Rain = 0
KNOR 120225Z 14007KT 31/14 A2999 RMK A01 T03080136  RH  036%=      5-min Rain = 0
KNOR 120230Z 14007KT 31/14 A2999 RMK A01 T03070137  RH  036%=      5-min Rain = 0
KNOR 120235Z 14007KT 31/14 A2999 RMK A01 T03060137  RH  036%=      5-min Rain = 0
KNOR 120240Z 14007KT 31/14 A2999 RMK A01 T03050138  RH  037%=      5-min Rain = 0
KNOR 120245Z 14007KT 30/14 A2999 RMK A01 T03030139  RH  037%=      5-min Rain = 0
KNOR 120250Z 15007KT 30/14 A2999 RMK A01 T03010139  RH  038%=      5-min Rain = 0
KNOR 120255Z 15008KT 30/14 A30 RMK A01 T02990140  RH  039%=      5-min Rain = 0
KNOR 120300Z 15008KT 30/14 A30 RMK A01 T02980139  RH  039%=      5-min Rain = 0
KNOR 120305Z 16007KT 30/14 A30 RMK A01 T02950141  RH  040%=      5-min Rain = 0
KNOR 120310Z 16007KT 29/14 A30 RMK A01 T02940141  RH  040%=      5-min Rain = 0
KNOR 120315Z 16007KT 29/14 A30 RMK A01 T02930141  RH  040%=      5-min Rain = 0
KNOR 120320Z 15007KT 29/14 A3001 RMK A01 T02930141  RH  040%=      5-min Rain = 0
KNOR 120325Z 15007KT 29/14 A3001 RMK A01 T02890142  RH  042%=      5-min Rain = 0
KNOR 120330Z 15007KT 29/14 A3001 RMK A01 T02860142  RH  042%=      5-min Rain = 0
KNOR 120335Z 15007KT 28/14 A3001 RMK A01 T02840143  RH  043%=      5-min Rain = 0
KNOR 120340Z 15007KT 28/14 A3001 RMK A01 T02840142  RH  043%=      5-min Rain = 0
KNOR 120345Z 15009KT 29/14 A3002 RMK A01 T02880141  RH  042%=      5-min Rain = 0
KNOR 120350Z 15008KT 29/14 A3002 RMK A01 T02900141  RH  041%=      5-min Rain = 0
KNOR 120355Z 15007KT 29/14 A3002 RMK A01 T02900142  RH  041%=      5-min Rain = 0
KNOR 120400Z 14007KT 29/14 A3002 RMK A01 T02890142  RH  042%=      5-min Rain = 0
KNOR 120405Z 14008KT 29/14 A3002 RMK A01 T02910142  RH  041%=      5-min Rain = 0
KNOR 120410Z 14008KT 29/14 A3002 RMK A01 T02940141  RH  040%=      5-min Rain = 0
KNOR 120415Z 14008KT 30/14 A3002 RMK A01 T02950141  RH  040%=      5-min Rain = 0
KNOR 120420Z 14008KT 30/14 A3002 RMK A01 T02960141  RH  040%=      5-min Rain = 0
KNOR 120425Z 13009KT 30/14 A3002 RMK A01 T02970140  RH  039%=      5-min Rain = 0
KNOR 120430Z 13012G17KT 30/14 A3002 RMK A01 T02990140  RH  039%=      5-min Rain = 0
KNOR 120435Z 14014G19KT 30/15 A3002 RMK A01 T03020145  RH  039%=      5-min Rain = 0
KNOR 120440Z 15014KT 30/15 A3002 RMK A01 T03000147  RH  040%=      5-min Rain = 0
KNOR 120445Z 15014G19KT 30/15 A3002 RMK A01 T02980149  RH  041%=      5-min Rain = 0
KNOR 120450Z 15014KT 30/15 A3002 RMK A01 T02970151  RH  042%=      5-min Rain = 0
KNOR 120455Z 15013KT 29/15 A3002 RMK A01 T02940153  RH  043%=      5-min Rain = 0

Page generated in 0.0094 seconds.